Time;durP1;ratioP1;P1;durP2;ratioP2;P2;SDS_P1;SDS_P2;PMS_P1;PMS_P2;Temp;Humidity;BMP_temperature;BMP_pressure;BME280_temperature;BME280_humidity;BME280_pressure;Samples;Min_cycle;Max_cycle;Signal;HPM_P1;HPM_P2
2023/06/14 00:00:20;;;;;;;7.40;3.72;;;;;;;19.08;40.46;101254.06;4985159;28;20043;-78
2023/06/14 00:03:05;;;;;;;8.13;3.65;;;;;;;19.07;40.23;101253.22;4983580;28;20130;-78
2023/06/14 00:05:51;;;;;;;7.38;3.60;;;;;;;19.04;40.19;101269.41;4988069;28;20057;-80
2023/06/14 00:08:36;;;;;;;5.10;3.75;;;;;;;19.02;40.25;101259.78;4976850;28;20504;-79
2023/06/14 00:11:21;;;;;;;5.90;3.30;;;;;;;18.94;39.90;101262.91;4988866;28;20047;-80
2023/06/14 00:14:07;;;;;;;9.27;3.53;;;;;;;18.92;40.06;101254.94;4986839;28;20047;-80
2023/06/14 00:16:57;;;;;;;7.85;3.63;;;;;;;18.89;40.24;101260.47;4993032;28;20523;-78
2023/06/14 00:19:43;;;;;;;5.88;3.08;;;;;;;18.86;39.86;101254.44;4992158;28;20054;-79
2023/06/14 00:22:28;;;;;;;4.05;2.95;;;;;;;18.84;39.64;101267.91;4988490;28;20050;-80
2023/06/14 00:25:14;;;;;;;7.25;3.30;;;;;;;18.83;40.14;101268.84;4987692;28;20055;-81
2023/06/14 00:28:13;;;;;;;5.53;3.17;;;;;;;18.82;39.57;101267.13;4943466;28;20059;-80
2023/06/14 00:30:59;;;;;;;6.35;3.63;;;;;;;18.76;40.07;101268.34;4957404;28;20048;-81
2023/06/14 00:33:46;;;;;;;7.38;3.45;;;;;;;18.72;39.56;101265.94;4948358;28;20108;-80
2023/06/14 00:36:32;;;;;;;5.75;2.92;;;;;;;18.69;39.26;101277.66;4951263;28;20044;-79
2023/06/14 00:39:17;;;;;;;7.07;2.80;;;;;;;18.66;39.84;101268.97;4950440;28;20051;-80
2023/06/14 00:42:02;;;;;;;4.57;2.92;;;;;;;18.70;39.76;101276.72;4950656;28;20056;-80
2023/06/14 00:44:47;;;;;;;6.20;3.20;;;;;;;18.68;39.83;101281.28;4951639;28;20089;-79
2023/06/14 00:47:37;;;;;;;6.40;3.25;;;;;;;18.69;39.86;101288.34;4949714;28;20047;-80
2023/06/14 00:50:23;;;;;;;4.22;3.17;;;;;;;18.63;39.96;101286.88;4952013;28;20124;-80
2023/06/14 00:53:09;;;;;;;4.35;3.00;;;;;;;18.65;39.79;101291.28;4952631;28;20135;-80
2023/06/14 00:55:55;;;;;;;5.47;2.80;;;;;;;18.59;39.87;101285.31;4962781;28;20051;-80
2023/06/14 00:58:41;;;;;;;6.75;3.22;;;;;;;18.45;40.15;101285.28;4950411;28;20135;-79
2023/06/14 01:01:28;;;;;;;4.72;3.13;;;;;;;18.35;40.54;101292.06;4947608;28;20052;-79
2023/06/14 01:04:14;;;;;;;7.85;3.35;;;;;;;18.25;40.71;101284.59;4951458;28;20507;-80
2023/06/14 01:07:26;;;;;;;4.32;3.45;;;;;;;18.19;41.07;101284.06;4949668;28;20056;-79
2023/06/14 01:10:53;;;;;;;6.00;3.05;;;;;;;18.12;41.25;101295.06;4949436;28;20621;-80
2023/06/14 01:13:43;;;;;;;5.43;3.17;;;;;;;18.16;41.23;101283.28;4950510;28;20523;-81
2023/06/14 01:16:31;;;;;;;5.65;3.10;;;;;;;18.10;41.19;101296.97;4950446;28;20052;-80
2023/06/14 01:19:17;;;;;;;6.13;3.20;;;;;;;18.08;41.43;101292.63;4950882;28;20044;-80
2023/06/14 01:22:03;;;;;;;4.35;3.00;;;;;;;18.10;41.46;101293.41;4961567;28;20208;-81
2023/06/14 01:24:49;;;;;;;8.60;3.08;;;;;;;18.04;41.53;101288.44;4953427;28;20043;-80
2023/06/14 01:27:36;;;;;;;7.18;3.50;;;;;;;18.00;41.65;101288.59;4969002;28;20200;-79
2023/06/14 01:30:25;;;;;;;5.72;3.20;;;;;;;17.97;41.65;101290.56;4977446;28;20043;-80
2023/06/14 01:33:17;;;;;;;7.00;3.30;;;;;;;17.91;41.81;101294.41;4969935;28;20043;-79
2023/06/14 01:36:08;;;;;;;6.43;3.00;;;;;;;17.82;42.12;101287.75;4978814;28;20619;-79
2023/06/14 01:38:53;;;;;;;6.18;3.38;;;;;;;17.75;42.38;101286.34;4969562;28;20051;-79
2023/06/14 01:41:49;;;;;;;7.20;2.88;;;;;;;17.69;42.41;101287.53;4972319;28;20055;-79
2023/06/14 01:44:37;;;;;;;5.78;3.05;;;;;;;17.61;42.86;101296.88;4971160;28;20059;-80
2023/06/14 01:47:23;;;;;;;5.07;2.97;;;;;;;17.51;43.01;101286.72;4970440;28;20051;-80
2023/06/14 01:50:09;;;;;;;5.95;2.97;;;;;;;17.44;43.27;101297.78;4982723;28;20059;-79
2023/06/14 01:52:55;;;;;;;5.85;3.10;;;;;;;17.43;43.49;101296.06;4961294;28;20524;-80
2023/06/14 01:55:43;;;;;;;5.15;3.00;;;;;;;17.39;43.74;101295.38;4953222;28;20048;-80
2023/06/14 01:58:28;;;;;;;6.90;3.05;;;;;;;17.33;43.81;101291.22;4976227;28;20096;-80
2023/06/14 02:01:16;;;;;;;7.60;3.38;;;;;;;17.38;43.52;101290.97;4946470;28;20051;-78
2023/06/14 02:04:03;;;;;;;6.20;3.25;;;;;;;17.29;43.75;101289.63;4959165;28;20485;-78
2023/06/14 02:06:48;;;;;;;4.75;2.75;;;;;;;17.23;44.01;101293.47;4968916;28;20051;-79
2023/06/14 02:09:35;;;;;;;5.57;2.90;;;;;;;17.18;44.14;101291.97;4968784;28;20138;-79
2023/06/14 02:12:20;;;;;;;3.85;2.70;;;;;;;17.10;44.15;101280.88;4970793;28;20039;-79
2023/06/14 02:15:06;;;;;;;5.57;3.20;;;;;;;17.04;44.54;101282.88;4965002;28;20043;-79
2023/06/14 02:17:53;;;;;;;6.88;2.83;;;;;;;16.99;45.06;101284.09;4970267;28;20051;-82
2023/06/14 02:20:39;;;;;;;4.72;2.88;;;;;;;17.08;44.95;101286.28;4970514;28;20126;-80
2023/06/14 02:23:24;;;;;;;6.78;2.90;;;;;;;17.06;44.67;101282.81;4982456;28;20055;-79
2023/06/14 02:26:09;;;;;;;4.63;2.50;;;;;;;16.98;45.02;101285.03;4971017;28;20051;-79
2023/06/14 02:28:54;;;;;;;4.55;2.65;;;;;;;16.91;45.11;101282.63;4960719;28;20059;-74
2023/06/14 02:31:40;;;;;;;5.53;3.08;;;;;;;16.85;45.47;101279.38;4964876;28;20051;-78
2023/06/14 02:34:27;;;;;;;3.78;2.80;;;;;;;16.78;45.63;101278.84;4965497;28;20051;-77
2023/06/14 02:37:12;;;;;;;5.28;2.83;;;;;;;16.79;45.78;101290.34;4968443;28;20043;-76
2023/06/14 02:39:58;;;;;;;6.20;3.28;;;;;;;16.80;45.82;101294.75;4970572;28;20139;-76
2023/06/14 02:42:44;;;;;;;5.50;2.97;;;;;;;16.80;45.86;101292.09;4969526;28;20130;-77
2023/06/14 02:45:29;;;;;;;6.65;3.10;;;;;;;16.74;45.72;101287.91;4964880;28;20437;-76
2023/06/14 02:48:15;;;;;;;7.90;2.65;;;;;;;16.68;46.23;101290.91;4965484;28;20135;-76
2023/06/14 02:51:00;;;;;;;3.88;2.67;;;;;;;16.68;46.00;101289.09;4965368;28;20044;-77
2023/06/14 02:53:45;;;;;;;6.45;2.85;;;;;;;16.64;46.27;101295.47;4983567;28;20039;-77
2023/06/14 02:56:30;;;;;;;5.00;2.70;;;;;;;16.64;46.37;101292.81;4968502;28;20052;-77
2023/06/14 02:59:16;;;;;;;7.38;3.22;;;;;;;16.59;46.19;101303.69;4968463;28;20138;-77
2023/06/14 03:02:03;;;;;;;6.50;2.88;;;;;;;16.57;46.46;101300.25;4978336;28;20051;-77
2023/06/14 03:04:50;;;;;;;6.85;2.75;;;;;;;16.57;46.50;101305.59;4951116;28;20064;-77
2023/06/14 03:07:40;;;;;;;4.78;2.70;;;;;;;16.56;46.85;101306.53;4979476;28;20539;-76
2023/06/14 03:10:28;;;;;;;5.75;2.88;;;;;;;16.52;46.92;101310.25;4956884;28;20039;-76
2023/06/14 03:13:15;;;;;;;6.85;2.80;;;;;;;16.50;46.94;101317.44;4983452;28;20051;-76
2023/06/14 03:16:04;;;;;;;11.55;3.00;;;;;;;16.46;47.22;101319.38;4968271;28;20043;-76
2023/06/14 03:18:53;;;;;;;13.30;3.25;;;;;;;16.40;47.29;101318.81;4968080;28;20055;-76
2023/06/14 03:21:43;;;;;;;5.05;2.85;;;;;;;16.36;47.72;101311.94;4981551;28;20055;-76
2023/06/14 03:24:29;;;;;;;5.15;2.95;;;;;;;16.32;47.96;101315.66;4965860;28;20058;-78
2023/06/14 03:27:16;;;;;;;4.55;2.70;;;;;;;16.33;47.49;101318.22;4955329;28;20615;-78
2023/06/14 03:30:05;;;;;;;5.43;2.75;;;;;;;16.31;48.02;101317.47;4965880;28;20055;-78
2023/06/14 03:32:52;;;;;;;4.45;2.90;;;;;;;16.34;47.63;101321.78;4969076;28;20055;-77
2023/06/14 03:35:38;;;;;;;6.18;2.75;;;;;;;16.32;48.48;101331.63;4968249;28;20051;-78
2023/06/14 03:38:23;;;;;;;7.75;2.65;;;;;;;16.25;48.11;101339.91;4957208;28;20051;-76
2023/06/14 03:41:09;;;;;;;5.82;3.00;;;;;;;16.21;48.38;101337.44;4980292;28;20122;-76
2023/06/14 03:43:54;;;;;;;4.70;2.83;;;;;;;16.23;48.49;101336.44;4968964;28;20236;-76
2023/06/14 03:46:40;;;;;;;7.72;3.10;;;;;;;16.35;47.97;101344.78;4964819;28;20043;-77
2023/06/14 03:49:26;;;;;;;6.20;2.50;;;;;;;16.40;48.55;101348.09;4969069;28;20146;-76
2023/06/14 03:52:11;;;;;;;5.28;2.50;;;;;;;16.52;48.09;101336.88;4965566;28;20130;-76
2023/06/14 03:55:00;;;;;;;6.07;2.40;;;;;;;16.57;47.85;101342.84;4966480;28;20479;-77
2023/06/14 03:57:49;;;;;;;6.28;2.80;;;;;;;16.58;47.69;101347.22;4967060;28;20051;-75
2023/06/14 04:00:35;;;;;;;5.68;2.60;;;;;;;16.58;48.13;101341.03;4966423;28;20051;-77
2023/06/14 04:03:23;;;;;;;4.03;2.65;;;;;;;16.57;47.63;101349.94;4969968;28;20059;-77
2023/06/14 04:06:10;;;;;;;6.07;2.50;;;;;;;16.60;48.00;101349.81;4968922;28;20051;-77
2023/06/14 04:08:55;;;;;;;5.50;2.90;;;;;;;16.73;47.75;101352.75;4983114;28;20052;-77
2023/06/14 04:11:40;;;;;;;7.47;2.63;;;;;;;16.70;48.21;101355.53;4962777;28;20047;-77
2023/06/14 04:14:25;;;;;;;5.47;2.63;;;;;;;16.65;48.02;101355.75;4976535;28;20175;-76
2023/06/14 04:17:11;;;;;;;5.53;2.67;;;;;;;16.61;48.34;101360.38;4961570;28;20122;-76
2023/06/14 04:20:04;;;;;;;4.75;2.55;;;;;;;16.68;48.32;101362.78;4958055;28;20067;-76
2023/06/14 04:22:52;;;;;;;5.05;2.55;;;;;;;16.70;48.32;101363.53;4976527;28;20056;-77
2023/06/14 04:25:38;;;;;;;5.40;2.50;;;;;;;16.74;48.60;101368.63;4982056;28;20099;-78
2023/06/14 04:28:26;;;;;;;5.20;2.40;;;;;;;16.73;48.49;101366.06;4967745;28;20158;-77
2023/06/14 04:31:16;;;;;;;4.20;2.50;;;;;;;16.69;48.43;101373.34;4972387;28;20042;-79
2023/06/14 04:34:05;;;;;;;6.45;2.85;;;;;;;16.76;48.42;101366.78;4978458;28;20054;-78
2023/06/14 04:36:55;;;;;;;10.48;2.78;;;;;;;16.79;48.56;101372.88;4976221;28;20055;-77
2023/06/14 04:39:51;;;;;;;4.90;2.55;;;;;;;16.78;48.47;101374.69;4980702;28;20086;-79
2023/06/14 04:42:36;;;;;;;4.85;2.55;;;;;;;16.76;48.67;101376.56;4977847;28;20564;-79
2023/06/14 04:45:24;;;;;;;6.25;2.97;;;;;;;16.79;48.52;101380.88;4975291;28;20050;-82
2023/06/14 04:48:15;;;;;;;7.68;2.72;;;;;;;16.83;48.88;101385.13;4967422;28;20507;-76
2023/06/14 04:51:00;;;;;;;6.18;2.85;;;;;;;16.90;49.13;101387.41;4990974;28;20055;-78
2023/06/14 04:53:46;;;;;;;7.13;2.88;;;;;;;16.97;48.64;101387.16;4982033;28;20174;-76
2023/06/14 04:56:32;;;;;;;8.13;2.58;;;;;;;16.99;48.78;101383.47;4978870;28;20055;-76
2023/06/14 04:59:19;;;;;;;6.38;2.60;;;;;;;17.06;48.64;101382.22;4976623;28;20047;-76
2023/06/14 05:02:05;;;;;;;4.68;2.63;;;;;;;17.17;47.96;101384.38;4972478;28;20094;-76
2023/06/14 05:04:51;;;;;;;4.40;2.58;;;;;;;17.23;48.15;101381.41;4980707;28;20047;-77
2023/06/14 05:07:37;;;;;;;5.32;2.67;;;;;;;17.32;48.61;101387.19;4963328;28;20047;-76
2023/06/14 05:10:26;;;;;;;4.68;2.80;;;;;;;17.40;47.84;101379.69;4968199;28;20051;-76
2023/06/14 05:13:12;;;;;;;6.70;2.35;;;;;;;17.59;47.37;101390.28;4986299;28;20134;-73
2023/06/14 05:15:58;;;;;;;3.40;2.47;;;;;;;17.80;47.64;101393.66;4975656;28;20043;-73
2023/06/14 05:18:43;;;;;;;8.85;2.55;;;;;;;18.33;46.65;101395.38;4991737;28;20053;-73
2023/06/14 05:21:28;;;;;;;6.28;2.47;;;;;;;19.39;44.13;101394.75;4987477;28;20547;-74
2023/06/14 05:24:16;;;;;;;4.80;2.33;;;;;;;19.70;43.12;101400.09;4985925;28;20140;-73
2023/06/14 05:27:10;;;;;;;3.55;2.53;;;;;;;19.91;42.49;101400.66;4985224;28;20051;-71
2023/06/14 05:30:04;;;;;;;6.10;2.70;;;;;;;20.12;42.11;101395.78;4993873;28;20058;-72
2023/06/14 05:32:50;;;;;;;4.10;2.42;;;;;;;21.62;39.53;101392.47;4990087;28;20051;-73
2023/06/14 05:35:35;;;;;;;4.68;2.35;;;;;;;24.16;35.20;101395.44;4970857;28;20819;-73
2023/06/14 05:38:21;;;;;;;7.55;2.38;;;;;;;26.00;31.98;101391.03;4981466;28;20050;-73
2023/06/14 05:41:06;;;;;;;4.72;2.33;;;;;;;27.56;29.46;101400.53;4974709;28;20520;-73
2023/06/14 05:43:54;;;;;;;5.45;2.58;;;;;;;28.51;27.67;101403.22;4989055;28;20051;-73
2023/06/14 05:46:39;;;;;;;5.43;1.90;;;;;;;29.40;26.36;101400.78;4990259;28;20047;-73
2023/06/14 05:49:25;;;;;;;3.70;2.10;;;;;;;30.10;24.90;101406.34;4992101;28;20889;-74
2023/06/14 05:52:12;;;;;;;5.95;2.28;;;;;;;30.28;24.55;101411.72;4987521;28;20047;-74
2023/06/14 05:54:58;;;;;;;5.00;2.00;;;;;;;30.68;24.17;101408.31;4972553;28;20084;-74
2023/06/14 05:57:43;;;;;;;3.85;2.08;;;;;;;30.99;23.73;101417.75;4990930;28;20534;-74
2023/06/14 06:00:28;;;;;;;4.82;2.20;;;;;;;31.22;23.12;101411.69;4999546;28;20066;-73
2023/06/14 06:03:14;;;;;;;5.68;2.40;;;;;;;31.45;22.81;101412.69;4991326;28;20047;-72
2023/06/14 06:05:59;;;;;;;12.45;2.28;;;;;;;31.65;22.59;101416.94;4990296;28;21697;-74
2023/06/14 06:08:45;;;;;;;6.75;2.40;;;;;;;31.78;22.71;101424.63;4985976;28;20058;-74
2023/06/14 06:11:30;;;;;;;3.63;2.00;;;;;;;31.81;21.64;101429.72;4991168;28;20042;-74
2023/06/14 06:14:32;;;;;;;5.75;2.03;;;;;;;31.86;21.75;101427.31;4990396;28;20042;-74
2023/06/14 06:17:18;;;;;;;7.68;2.40;;;;;;;31.73;21.94;101433.31;4989767;28;20039;-75
2023/06/14 06:20:06;;;;;;;4.90;2.03;;;;;;;30.79;22.92;101436.22;4975538;28;20055;-74
2023/06/14 06:22:52;;;;;;;8.50;2.15;;;;;;;28.14;25.71;101442.03;4989455;28;20051;-74
2023/06/14 06:25:37;;;;;;;5.50;2.20;;;;;;;25.87;29.09;101433.63;4995814;28;20054;-74
2023/06/14 06:28:23;;;;;;;3.65;1.83;;;;;;;24.48;31.34;101440.50;4981003;28;20046;-73
2023/06/14 06:31:09;;;;;;;4.30;2.28;;;;;;;23.59;32.67;101451.84;4990114;28;20889;-73
2023/06/14 06:33:55;;;;;;;4.38;1.90;;;;;;;22.95;34.04;101451.13;4972103;28;20050;-74
2023/06/14 06:36:42;;;;;;;8.98;2.38;;;;;;;22.62;35.40;101452.63;4990529;28;20477;-74
2023/06/14 06:39:27;;;;;;;3.67;2.15;;;;;;;22.32;35.65;101458.31;4990361;28;20135;-74
2023/06/14 06:42:12;;;;;;;6.55;2.30;;;;;;;22.11;36.34;101458.00;4990644;28;20038;-71
2023/06/14 06:45:00;;;;;;;4.35;2.33;;;;;;;21.88;36.79;101460.44;4963349;28;20061;-71
2023/06/14 06:47:46;;;;;;;6.38;2.20;;;;;;;21.77;37.08;101469.22;4978313;28;20047;-72
2023/06/14 06:50:31;;;;;;;5.35;2.13;;;;;;;21.69;37.61;101474.22;4982477;28;20043;-71
2023/06/14 06:53:18;;;;;;;4.53;2.17;;;;;;;21.70;37.40;101481.31;4991211;28;20479;-71
2023/06/14 06:56:15;;;;;;;4.97;2.10;;;;;;;21.67;37.83;101474.34;4990018;28;20059;-71
2023/06/14 06:59:01;;;;;;;4.13;2.22;;;;;;;21.72;37.46;101482.09;4990637;28;20050;-71
2023/06/14 07:01:46;;;;;;;4.95;2.22;;;;;;;21.72;37.15;101476.72;4990812;28;20082;-72
2023/06/14 07:04:32;;;;;;;5.00;1.80;;;;;;;21.81;36.89;101480.59;4976026;28;20050;-71
2023/06/14 07:07:17;;;;;;;4.93;2.38;;;;;;;21.81;37.13;101484.13;4973036;28;21002;-71
2023/06/14 07:10:04;;;;;;;2.85;1.88;;;;;;;21.83;37.17;101489.38;4990025;28;20523;-71
2023/06/14 07:12:50;;;;;;;5.03;2.15;;;;;;;21.97;37.04;101494.69;4989796;28;20043;-71
2023/06/14 07:15:36;;;;;;;5.63;2.00;;;;;;;22.08;36.99;101493.09;4991331;28;20051;-71
2023/06/14 07:18:22;;;;;;;3.00;1.92;;;;;;;22.19;37.00;101499.44;4989546;28;21015;-72
2023/06/14 07:21:07;;;;;;;4.30;2.00;;;;;;;22.31;36.37;101495.06;4991394;28;20511;-72
2023/06/14 07:23:53;;;;;;;6.18;2.05;;;;;;;22.33;35.89;101501.16;4991050;28;20567;-72
2023/06/14 07:26:39;;;;;;;5.38;1.55;;;;;;;22.33;36.31;101493.09;4989244;28;20523;-71
2023/06/14 07:29:24;;;;;;;9.27;2.10;;;;;;;22.35;36.48;101495.69;4976005;28;20083;-71
2023/06/14 07:32:10;;;;;;;3.13;1.83;;;;;;;22.53;35.91;101507.00;4976181;28;20133;-71
2023/06/14 07:34:55;;;;;;;3.35;1.85;;;;;;;22.69;36.09;101501.38;4991443;28;20054;-72
2023/06/14 07:37:40;;;;;;;2.92;1.80;;;;;;;22.85;35.33;101505.66;4976883;28;20518;-71
2023/06/14 07:40:25;;;;;;;3.15;1.48;;;;;;;22.91;35.15;101508.78;4989042;28;20038;-72
2023/06/14 07:43:10;;;;;;;2.10;1.20;;;;;;;22.95;34.09;101504.03;4991129;28;20039;-72
2023/06/14 07:45:56;;;;;;;3.90;1.40;;;;;;;22.97;33.17;101515.53;4990937;28;20527;-72
2023/06/14 07:48:52;;;;;;;1.77;1.25;;;;;;;22.90;33.40;101500.81;4981094;28;20047;-72
2023/06/14 07:51:38;;;;;;;2.70;1.00;;;;;;;23.00;32.57;101509.06;4991587;28;20046;-72
2023/06/14 07:54:26;;;;;;;1.48;1.25;;;;;;;23.01;32.05;101511.63;4990594;28;20573;-72
2023/06/14 07:57:11;;;;;;;1.95;1.10;;;;;;;23.06;32.47;101517.56;4989207;28;20042;-72
2023/06/14 07:59:57;;;;;;;8.95;0.90;;;;;;;23.14;31.82;101525.06;4990622;28;20153;-72
2023/06/14 08:02:44;;;;;;;2.05;0.85;;;;;;;23.17;30.65;101514.06;4990136;28;20043;-72
2023/06/14 08:05:29;;;;;;;2.72;0.88;;;;;;;23.19;30.96;101516.69;4988311;28;20050;-72
2023/06/14 08:08:15;;;;;;;1.73;0.70;;;;;;;23.26;30.57;101518.81;4988552;28;20079;-72
2023/06/14 08:11:00;;;;;;;2.83;0.85;;;;;;;23.31;31.12;101520.31;4990644;28;20055;-72
2023/06/14 08:13:45;;;;;;;3.67;1.00;;;;;;;23.30;31.13;101522.13;4989825;28;20058;-72
2023/06/14 08:16:31;;;;;;;3.05;0.95;;;;;;;23.36;30.88;101518.13;4988626;28;20047;-72
2023/06/14 08:19:16;;;;;;;3.33;1.10;;;;;;;23.49;31.30;101523.47;4987081;28;20050;-72
2023/06/14 08:22:01;;;;;;;3.67;0.98;;;;;;;23.53;31.24;101516.88;4986205;28;20047;-72
2023/06/14 08:24:47;;;;;;;7.10;1.00;;;;;;;23.60;30.59;101522.66;4974418;28;20058;-72
2023/06/14 08:27:33;;;;;;;4.80;1.30;;;;;;;23.67;30.46;101521.22;4988080;28;20937;-72
2023/06/14 08:30:19;;;;;;;4.85;0.90;;;;;;;23.73;30.08;101510.00;4989887;28;20055;-72
2023/06/14 08:33:04;;;;;;;2.25;1.00;;;;;;;23.77;30.33;101513.31;4989369;28;20502;-72
2023/06/14 08:36:01;;;;;;;1.70;1.00;;;;;;;23.84;30.66;101511.84;4980680;28;20048;-72
2023/06/14 08:38:46;;;;;;;1.35;0.90;;;;;;;23.98;29.92;101522.47;4989670;28;20601;-71
2023/06/14 08:41:33;;;;;;;2.70;1.10;;;;;;;23.97;30.45;101514.50;4989504;28;20482;-72
2023/06/14 08:44:18;;;;;;;2.60;1.20;;;;;;;24.02;30.63;101523.09;4990648;28;20047;-72
2023/06/14 08:47:06;;;;;;;3.25;1.10;;;;;;;24.21;30.06;101521.66;4975701;28;20042;-73
2023/06/14 08:49:57;;;;;;;1.70;1.10;;;;;;;24.27;29.70;101515.78;4967928;28;20059;-72
2023/06/14 08:52:50;;;;;;;2.65;1.15;;;;;;;24.27;29.97;101515.78;4971002;28;20107;-72
2023/06/14 08:55:39;;;;;;;1.70;1.00;;;;;;;24.34;30.06;101507.13;4984522;28;20065;-72
2023/06/14 08:58:33;;;;;;;1.98;1.15;;;;;;;24.48;29.82;101503.31;4988190;28;20055;-73
2023/06/14 09:01:21;;;;;;;2.22;0.93;;;;;;;24.67;29.40;101515.38;4989277;28;20047;-72
2023/06/14 09:04:06;;;;;;;2.15;1.05;;;;;;;24.70;29.34;101506.19;4974692;28;20043;-71
2023/06/14 09:06:52;;;;;;;1.63;1.25;;;;;;;24.66;28.71;101506.41;4969703;28;20138;-70
2023/06/14 09:09:44;;;;;;;4.32;1.10;;;;;;;24.73;28.50;101514.91;4978142;28;20047;-71
2023/06/14 09:12:49;;;;;;;2.58;1.20;;;;;;;24.68;29.39;101516.22;4989714;28;20043;-71
2023/06/14 09:15:35;;;;;;;2.50;1.02;;;;;;;24.68;29.37;101500.91;4987109;28;20047;-71
2023/06/14 09:18:21;;;;;;;1.75;1.23;;;;;;;24.79;28.83;101514.38;4974484;28;20043;-71
2023/06/14 09:21:07;;;;;;;2.22;0.98;;;;;;;24.98;28.43;101520.16;4988449;28;20094;-71
2023/06/14 09:23:53;;;;;;;4.20;1.25;;;;;;;25.02;27.41;101522.47;4988791;28;20055;-70
2023/06/14 09:26:40;;;;;;;3.05;1.10;;;;;;;25.04;26.46;101509.72;4987383;28;20050;-72
2023/06/14 09:29:27;;;;;;;2.05;1.20;;;;;;;25.06;27.19;101517.66;4991391;28;20062;-72
2023/06/14 09:32:13;;;;;;;3.42;1.02;;;;;;;25.12;27.80;101515.34;4999729;28;20637;-72
2023/06/14 09:34:59;;;;;;;3.85;1.50;;;;;;;25.25;28.17;101517.03;4988349;28;20083;-71
2023/06/14 09:37:44;;;;;;;1.45;1.20;;;;;;;25.18;28.71;101511.28;4974767;28;20046;-72
2023/06/14 09:40:35;;;;;;;3.55;1.33;;;;;;;25.23;29.46;101516.28;4988851;28;20050;-72
2023/06/14 09:43:21;;;;;;;2.80;0.98;;;;;;;25.40;27.75;101505.00;4989241;28;20950;-71
2023/06/14 09:46:08;;;;;;;4.30;1.10;;;;;;;25.40;27.67;101515.78;4990469;28;20578;-71
2023/06/14 09:48:54;;;;;;;2.67;1.10;;;;;;;25.28;27.92;101517.63;4991274;28;20046;-71
2023/06/14 09:51:45;;;;;;;1.90;1.05;;;;;;;25.26;27.98;101505.25;4992936;28;20054;-72
2023/06/14 09:54:36;;;;;;;1.27;0.90;;;;;;;25.25;27.60;101517.88;4991464;28;20684;-72
2023/06/14 09:57:23;;;;;;;2.13;1.00;;;;;;;25.20;28.38;101513.84;4985318;28;20050;-72
2023/06/14 10:00:11;;;;;;;3.50;1.13;;;;;;;25.25;28.06;101517.03;4977814;28;20055;-72
2023/06/14 10:03:06;;;;;;;2.95;1.30;;;;;;;25.38;28.06;101509.66;4991984;28;20087;-72
2023/06/14 10:05:52;;;;;;;1.65;1.10;;;;;;;25.26;28.50;101516.91;4982547;28;20051;-72
2023/06/14 10:08:40;;;;;;;2.33;1.17;;;;;;;25.27;28.62;101507.81;4992514;28;20051;-72
2023/06/14 10:11:29;;;;;;;2.42;1.08;;;;;;;25.34;28.76;101510.88;4969848;28;20532;-73
2023/06/14 10:14:15;;;;;;;3.13;1.17;;;;;;;25.43;28.03;101512.00;4990003;28;20051;-73
2023/06/14 10:17:10;;;;;;;3.75;1.00;;;;;;;25.54;27.83;101514.63;4990991;28;20043;-73
2023/06/14 10:20:07;;;;;;;3.00;1.00;;;;;;;25.40;28.17;101509.53;4985660;28;20047;-73
2023/06/14 10:23:04;;;;;;;1.98;1.00;;;;;;;25.46;28.45;101516.28;4967005;28;20039;-73
2023/06/14 10:25:56;;;;;;;1.83;1.13;;;;;;;25.33;28.96;101502.91;4985142;28;20592;-73
2023/06/14 10:28:55;;;;;;;3.47;0.95;;;;;;;25.33;28.82;101503.75;4987930;28;20108;-73
2023/06/14 10:31:44;;;;;;;2.28;0.82;;;;;;;25.47;28.71;101499.94;4968438;28;20058;-73
2023/06/14 10:34:31;;;;;;;1.75;1.00;;;;;;;25.62;28.08;101505.06;4991375;28;20050;-73
2023/06/14 10:37:16;;;;;;;6.78;1.15;;;;;;;25.61;28.10;101512.28;4990725;28;20110;-73
2023/06/14 10:40:04;;;;;;;1.45;0.98;;;;;;;25.55;27.96;101508.25;4984321;28;20058;-74
2023/06/14 10:42:53;;;;;;;1.92;0.80;;;;;;;25.68;27.98;101509.91;4971100;28;20295;-73
2023/06/14 10:46:21;;;;;;;2.30;1.00;;;;;;;25.56;27.90;101514.53;4990147;28;20061;-73
2023/06/14 10:49:06;;;;;;;1.88;1.10;;;;;;;25.59;28.19;101508.84;4991487;28;20050;-74
2023/06/14 10:51:52;;;;;;;3.28;0.90;;;;;;;25.74;27.86;101507.56;4992103;28;20043;-73
2023/06/14 10:54:38;;;;;;;1.70;0.90;;;;;;;25.81;27.70;101512.44;4990361;28;20121;-73
2023/06/14 10:57:23;;;;;;;2.28;0.90;;;;;;;25.86;27.19;101513.75;4990026;28;20051;-74
2023/06/14 11:00:17;;;;;;;1.58;0.90;;;;;;;25.72;27.63;101492.50;4983799;28;20043;-73
2023/06/14 11:03:27;;;;;;;3.13;1.00;;;;;;;25.86;27.89;101494.84;4972722;28;20110;-73
2023/06/14 11:06:15;;;;;;;1.20;0.90;;;;;;;25.99;28.18;101507.31;4966212;28;20055;-74
2023/06/14 11:09:37;;;;;;;2.35;0.98;;;;;;;26.19;27.88;101502.94;4972250;28;20067;-73
2023/06/14 11:12:27;;;;;;;1.63;0.95;;;;;;;26.43;26.60;101507.19;4971454;28;20051;-73
2023/06/14 11:15:13;;;;;;;1.55;0.90;;;;;;;26.44;26.15;101512.47;4987254;28;20083;-73
2023/06/14 11:18:09;;;;;;;4.68;0.80;;;;;;;26.50;25.70;101511.91;4991860;28;20507;-73
2023/06/14 11:20:54;;;;;;;1.77;0.77;;;;;;;26.37;25.27;101499.63;4990634;28;20047;-73
2023/06/14 11:23:39;;;;;;;1.05;0.90;;;;;;;26.15;25.30;101501.47;4991452;28;20055;-74
2023/06/14 11:26:30;;;;;;;1.40;0.90;;;;;;;26.05;26.61;101510.34;4987525;28;20047;-71
2023/06/14 11:29:17;;;;;;;2.55;0.90;;;;;;;26.17;25.81;101513.00;4991032;28;20412;-73
2023/06/14 11:32:06;;;;;;;1.83;0.95;;;;;;;26.13;25.99;101512.44;4996132;28;20427;-72
2023/06/14 11:34:51;;;;;;;2.78;1.15;;;;;;;26.06;26.12;101516.59;4988978;28;20503;-72
2023/06/14 11:37:37;;;;;;;1.10;0.98;;;;;;;26.01;26.39;101508.03;4967055;28;20498;-74
2023/06/14 11:40:25;;;;;;;1.10;0.80;;;;;;;26.07;26.00;101503.97;4976519;28;20047;-73
2023/06/14 11:43:13;;;;;;;1.40;0.88;;;;;;;25.93;26.91;101492.50;4990352;28;20047;-72
2023/06/14 11:45:58;;;;;;;2.42;1.13;;;;;;;26.11;27.29;101492.78;4974286;28;20511;-72
2023/06/14 11:48:53;;;;;;;2.45;1.00;;;;;;;26.41;26.41;101499.22;4988166;28;20802;-72
2023/06/14 11:51:38;;;;;;;3.90;1.20;;;;;;;26.50;26.45;101503.81;4997796;28;20479;-72
2023/06/14 11:54:24;;;;;;;1.20;1.00;;;;;;;26.41;26.63;101495.63;4990062;28;20511;-72
2023/06/14 11:57:10;;;;;;;2.28;1.08;;;;;;;26.49;26.69;101503.94;4989391;28;20043;-72
2023/06/14 11:59:55;;;;;;;1.52;0.90;;;;;;;26.50;26.10;101508.38;4970644;28;20548;-72
2023/06/14 12:02:41;;;;;;;2.42;0.85;;;;;;;26.30;26.82;101513.66;4973652;28;20071;-73
2023/06/14 12:05:27;;;;;;;1.65;1.00;;;;;;;26.30;26.51;101508.25;4990229;28;20046;-73
2023/06/14 12:08:17;;;;;;;2.08;1.20;;;;;;;26.49;26.51;101507.50;4989753;28;20058;-73
2023/06/14 12:11:03;;;;;;;2.17;1.05;;;;;;;26.54;26.06;101507.09;4990816;28;20769;-73
2023/06/14 12:13:49;;;;;;;2.20;1.00;;;;;;;26.61;25.81;101505.53;4985991;28;20086;-72
2023/06/14 12:16:38;;;;;;;5.72;1.20;;;;;;;26.70;26.11;101505.75;4989942;28;20047;-73
2023/06/14 12:19:26;;;;;;;1.65;0.73;;;;;;;26.62;26.04;101511.81;4986659;28;20047;-73
2023/06/14 12:22:13;;;;;;;1.85;1.05;;;;;;;26.59;26.28;101496.75;4982981;28;20043;-72
2023/06/14 12:24:59;;;;;;;3.72;0.90;;;;;;;26.73;25.76;101498.22;4973209;28;20505;-73
2023/06/14 12:27:47;;;;;;;1.67;0.80;;;;;;;26.78;25.71;101503.25;4988924;28;20527;-73
2023/06/14 12:30:33;;;;;;;2.58;1.10;;;;;;;26.68;25.59;101497.75;4972411;28;20047;-73
2023/06/14 12:33:19;;;;;;;2.78;0.95;;;;;;;26.50;26.70;101500.25;4973341;28;20051;-73
2023/06/14 12:36:06;;;;;;;3.17;0.80;;;;;;;26.50;26.44;101500.25;4974967;28;20080;-73
2023/06/14 12:38:55;;;;;;;1.58;0.90;;;;;;;26.58;26.55;101499.56;4990532;28;20050;-73
2023/06/14 12:41:43;;;;;;;1.38;0.85;;;;;;;26.57;26.15;101493.31;4971844;28;20051;-72
2023/06/14 12:44:28;;;;;;;2.40;0.77;;;;;;;26.84;26.83;101499.97;4973902;28;20055;-72
2023/06/14 12:47:14;;;;;;;3.67;1.10;;;;;;;27.11;25.87;101503.91;4972438;28;20058;-73
2023/06/14 12:49:59;;;;;;;2.85;0.98;;;;;;;27.17;25.67;101503.34;4973761;28;20050;-73
2023/06/14 12:52:45;;;;;;;1.05;0.82;;;;;;;27.31;25.56;101493.97;4992095;28;20497;-72
2023/06/14 12:55:32;;;;;;;2.55;0.82;;;;;;;27.43;25.09;101505.50;4974968;28;20126;-73
2023/06/14 12:58:19;;;;;;;1.63;0.75;;;;;;;27.46;24.93;101499.00;4988140;28;20118;-72